sensor_id;sensor_type;location;lat;lon;timestamp;pressure;altitude;pressure_sealevel;temperature;humidity
85979;BME280;76553;50.982;8.258;2024-03-29T00:00:34;94091.91;;;4.46;71.76
85979;BME280;76553;50.982;8.258;2024-03-29T00:02:59;94121.47;;;4.68;71.60
85979;BME280;76553;50.982;8.258;2024-03-29T00:05:25;94110.06;;;4.53;71.66
85979;BME280;76553;50.982;8.258;2024-03-29T00:07:50;94125.34;;;4.61;71.74
85979;BME280;76553;50.982;8.258;2024-03-29T00:10:15;94105.00;;;4.46;71.80
85979;BME280;76553;50.982;8.258;2024-03-29T00:12:40;94084.41;;;4.33;71.77
85979;BME280;76553;50.982;8.258;2024-03-29T00:15:06;94114.50;;;4.52;71.96
85979;BME280;76553;50.982;8.258;2024-03-29T00:17:32;94107.13;;;4.49;71.57
85979;BME280;76553;50.982;8.258;2024-03-29T00:19:57;94076.53;;;4.33;71.90
85979;BME280;76553;50.982;8.258;2024-03-29T00:22:23;94097.13;;;4.46;72.06
85979;BME280;76553;50.982;8.258;2024-03-29T00:24:48;94087.69;;;4.45;71.98
85979;BME280;76553;50.982;8.258;2024-03-29T00:27:13;94082.63;;;4.39;71.67
85979;BME280;76553;50.982;8.258;2024-03-29T00:29:38;94095.19;;;4.37;71.92
85979;BME280;76553;50.982;8.258;2024-03-29T00:32:04;94073.88;;;4.28;72.06
85979;BME280;76553;50.982;8.258;2024-03-29T00:34:29;94068.50;;;4.18;71.83
85979;BME280;76553;50.982;8.258;2024-03-29T00:36:55;94058.28;;;4.17;71.57
85979;BME280;76553;50.982;8.258;2024-03-29T00:39:20;94059.78;;;4.12;71.65
85979;BME280;76553;50.982;8.258;2024-03-29T00:41:45;94054.31;;;4.14;71.92
85979;BME280;76553;50.982;8.258;2024-03-29T00:44:10;94088.34;;;4.36;71.61
85979;BME280;76553;50.982;8.258;2024-03-29T00:46:36;94046.34;;;4.04;71.66
85979;BME280;76553;50.982;8.258;2024-03-29T00:49:01;94062.06;;;4.04;71.99
85979;BME280;76553;50.982;8.258;2024-03-29T00:51:26;94077.84;;;4.09;71.86
85979;BME280;76553;50.982;8.258;2024-03-29T00:53:52;94092.09;;;4.18;72.41
85979;BME280;76553;50.982;8.258;2024-03-29T00:56:19;94094.88;;;4.11;73.20
85979;BME280;76553;50.982;8.258;2024-03-29T00:58:44;94080.47;;;4.09;72.77
85979;BME280;76553;50.982;8.258;2024-03-29T01:01:10;94051.00;;;3.80;73.36
85979;BME280;76553;50.982;8.258;2024-03-29T01:03:35;94087.50;;;3.87;73.54
85979;BME280;76553;50.982;8.258;2024-03-29T01:06:00;94064.69;;;3.66;73.19
85979;BME280;76553;50.982;8.258;2024-03-29T01:08:26;94015.50;;;3.30;74.00
85979;BME280;76553;50.982;8.258;2024-03-29T01:10:51;94076.47;;;3.47;74.05
85979;BME280;76553;50.982;8.258;2024-03-29T01:13:16;94115.16;;;3.61;74.48
85979;BME280;76553;50.982;8.258;2024-03-29T01:15:41;94098.03;;;3.54;74.29
85979;BME280;76553;50.982;8.258;2024-03-29T01:18:07;94083.78;;;3.45;74.18
85979;BME280;76553;50.982;8.258;2024-03-29T01:20:32;94073.16;;;3.35;74.79
85979;BME280;76553;50.982;8.258;2024-03-29T01:22:57;94069.25;;;3.37;74.41
85979;BME280;76553;50.982;8.258;2024-03-29T01:25:22;94092.00;;;3.53;74.83
85979;BME280;76553;50.982;8.258;2024-03-29T01:27:49;94099.47;;;3.61;74.83
85979;BME280;76553;50.982;8.258;2024-03-29T01:30:14;94104.03;;;3.71;75.29
85979;BME280;76553;50.982;8.258;2024-03-29T01:32:40;94104.13;;;3.76;75.07
85979;BME280;76553;50.982;8.258;2024-03-29T01:35:05;94103.38;;;3.80;75.21
85979;BME280;76553;50.982;8.258;2024-03-29T01:37:30;94076.13;;;3.76;74.74
85979;BME280;76553;50.982;8.258;2024-03-29T01:39:56;94111.59;;;4.05;74.74
85979;BME280;76553;50.982;8.258;2024-03-29T01:42:21;94099.81;;;4.08;74.69
85979;BME280;76553;50.982;8.258;2024-03-29T01:44:47;94098.72;;;4.26;73.46
85979;BME280;76553;50.982;8.258;2024-03-29T01:47:12;94102.56;;;4.40;73.26
85979;BME280;76553;50.982;8.258;2024-03-29T01:49:39;94103.44;;;4.45;72.91
85979;BME280;76553;50.982;8.258;2024-03-29T01:52:05;94084.34;;;4.50;72.54
85979;BME280;76553;50.982;8.258;2024-03-29T01:54:31;94106.06;;;4.72;71.46
85979;BME280;76553;50.982;8.258;2024-03-29T01:56:59;94094.03;;;4.76;71.30
85979;BME280;76553;50.982;8.258;2024-03-29T01:59:25;94094.41;;;4.84;70.59
85979;BME280;76553;50.982;8.258;2024-03-29T02:01:52;94097.34;;;4.93;70.44
85979;BME280;76553;50.982;8.258;2024-03-29T02:04:18;94098.84;;;5.10;69.96
85979;BME280;76553;50.982;8.258;2024-03-29T02:06:43;94114.91;;;5.19;69.41
85979;BME280;76553;50.982;8.258;2024-03-29T02:09:10;94123.63;;;5.24;69.56
85979;BME280;76553;50.982;8.258;2024-03-29T02:11:35;94096.31;;;5.25;68.56
85979;BME280;76553;50.982;8.258;2024-03-29T02:14:00;94072.19;;;5.23;68.74
85979;BME280;76553;50.982;8.258;2024-03-29T02:16:26;94048.06;;;5.26;68.99
85979;BME280;76553;50.982;8.258;2024-03-29T02:18:52;94040.66;;;5.18;68.58
85979;BME280;76553;50.982;8.258;2024-03-29T02:21:17;94068.66;;;5.44;67.90
85979;BME280;76553;50.982;8.258;2024-03-29T02:23:47;94023.09;;;5.24;68.36
85979;BME280;76553;50.982;8.258;2024-03-29T02:26:12;94079.25;;;5.55;68.01
85979;BME280;76553;50.982;8.258;2024-03-29T02:28:38;94082.59;;;5.50;68.21
85979;BME280;76553;50.982;8.258;2024-03-29T02:31:04;94029.69;;;5.26;68.76
85979;BME280;76553;50.982;8.258;2024-03-29T02:33:29;94085.28;;;5.60;68.48
85979;BME280;76553;50.982;8.258;2024-03-29T02:35:55;94044.31;;;5.54;68.22
85979;BME280;76553;50.982;8.258;2024-03-29T02:38:20;94022.16;;;5.45;69.56
85979;BME280;76553;50.982;8.258;2024-03-29T02:40:45;94028.53;;;5.54;69.75
85979;BME280;76553;50.982;8.258;2024-03-29T02:43:10;94020.63;;;5.49;70.02
85979;BME280;76553;50.982;8.258;2024-03-29T02:45:36;93996.59;;;5.25;70.21
85979;BME280;76553;50.982;8.258;2024-03-29T02:48:01;93977.63;;;5.13;70.49
85979;BME280;76553;50.982;8.258;2024-03-29T02:50:27;94008.69;;;5.26;70.67
85979;BME280;76553;50.982;8.258;2024-03-29T02:52:52;93978.44;;;5.14;70.70
85979;BME280;76553;50.982;8.258;2024-03-29T02:55:17;94017.59;;;5.25;69.60
85979;BME280;76553;50.982;8.258;2024-03-29T02:57:43;93948.16;;;5.01;69.33
85979;BME280;76553;50.982;8.258;2024-03-29T03:00:08;93978.47;;;5.24;69.76
85979;BME280;76553;50.982;8.258;2024-03-29T03:02:38;94015.88;;;5.41;69.47
85979;BME280;76553;50.982;8.258;2024-03-29T03:05:04;93993.44;;;5.23;68.40
85979;BME280;76553;50.982;8.258;2024-03-29T03:07:30;94035.38;;;5.55;68.40
85979;BME280;76553;50.982;8.258;2024-03-29T03:10:14;94019.91;;;5.59;68.59
85979;BME280;76553;50.982;8.258;2024-03-29T03:12:58;93975.09;;;5.28;68.42
85979;BME280;76553;50.982;8.258;2024-03-29T03:15:23;94031.78;;;5.66;67.84
85979;BME280;76553;50.982;8.258;2024-03-29T03:17:48;94002.81;;;5.51;67.53
85979;BME280;76553;50.982;8.258;2024-03-29T03:20:13;94033.63;;;5.71;67.07
85979;BME280;76553;50.982;8.258;2024-03-29T03:22:40;94008.59;;;5.53;67.57
85979;BME280;76553;50.982;8.258;2024-03-29T03:25:06;93988.03;;;5.40;67.27
85979;BME280;76553;50.982;8.258;2024-03-29T03:27:31;94011.47;;;5.57;66.77
85979;BME280;76553;50.982;8.258;2024-03-29T03:29:56;93994.91;;;5.46;66.73
85979;BME280;76553;50.982;8.258;2024-03-29T03:32:22;93985.63;;;5.38;66.63
85979;BME280;76553;50.982;8.258;2024-03-29T03:34:47;94040.50;;;5.77;66.58
85979;BME280;76553;50.982;8.258;2024-03-29T03:37:12;93912.38;;;4.85;66.21
85979;BME280;76553;50.982;8.258;2024-03-29T03:39:37;93944.31;;;5.19;66.31
85979;BME280;76553;50.982;8.258;2024-03-29T03:42:03;94018.09;;;5.64;66.15
85979;BME280;76553;50.982;8.258;2024-03-29T03:44:28;94023.34;;;5.64;66.55
85979;BME280;76553;50.982;8.258;2024-03-29T03:46:55;94054.69;;;5.76;66.37
85979;BME280;76553;50.982;8.258;2024-03-29T03:49:20;94052.25;;;5.64;67.25
85979;BME280;76553;50.982;8.258;2024-03-29T03:51:45;94053.34;;;5.73;66.93
85979;BME280;76553;50.982;8.258;2024-03-29T03:54:10;94019.31;;;5.46;67.67
85979;BME280;76553;50.982;8.258;2024-03-29T03:56:36;93985.81;;;5.22;68.39
85979;BME280;76553;50.982;8.258;2024-03-29T03:59:01;94047.72;;;5.55;69.73
85979;BME280;76553;50.982;8.258;2024-03-29T04:01:26;94042.84;;;5.31;70.36
85979;BME280;76553;50.982;8.258;2024-03-29T04:03:52;94039.94;;;5.28;71.52
85979;BME280;76553;50.982;8.258;2024-03-29T04:06:17;94047.47;;;5.19;73.00
85979;BME280;76553;50.982;8.258;2024-03-29T04:08:45;94016.06;;;4.98;73.90
85979;BME280;76553;50.982;8.258;2024-03-29T04:11:11;93995.53;;;4.90;73.30
85979;BME280;76553;50.982;8.258;2024-03-29T04:13:36;94026.31;;;4.99;74.36
85979;BME280;76553;50.982;8.258;2024-03-29T04:16:04;94030.50;;;4.95;74.95
85979;BME280;76553;50.982;8.258;2024-03-29T04:18:30;94008.31;;;4.81;75.72
85979;BME280;76553;50.982;8.258;2024-03-29T04:20:59;94030.91;;;4.82;76.57
85979;BME280;76553;50.982;8.258;2024-03-29T04:23:25;93964.88;;;4.32;76.57
85979;BME280;76553;50.982;8.258;2024-03-29T04:25:57;94028.19;;;4.72;77.09
85979;BME280;76553;50.982;8.258;2024-03-29T04:28:23;94036.31;;;4.71;76.36
85979;BME280;76553;50.982;8.258;2024-03-29T04:30:55;94037.56;;;4.68;77.48
85979;BME280;76553;50.982;8.258;2024-03-29T04:33:22;94032.22;;;4.53;78.37
85979;BME280;76553;50.982;8.258;2024-03-29T04:35:58;94041.94;;;4.58;78.82
85979;BME280;76553;50.982;8.258;2024-03-29T04:38:28;94040.34;;;4.57;78.73
85979;BME280;76553;50.982;8.258;2024-03-29T04:40:54;94013.47;;;4.40;78.16
85979;BME280;76553;50.982;8.258;2024-03-29T04:43:25;93962.34;;;4.10;79.30
85979;BME280;76553;50.982;8.258;2024-03-29T04:45:50;93991.34;;;4.31;79.16
85979;BME280;76553;50.982;8.258;2024-03-29T04:48:26;94006.41;;;4.40;79.65
85979;BME280;76553;50.982;8.258;2024-03-29T04:50:51;94032.41;;;4.47;80.58
85979;BME280;76553;50.982;8.258;2024-03-29T04:53:16;94016.81;;;4.35;80.53
85979;BME280;76553;50.982;8.258;2024-03-29T04:55:41;93932.75;;;3.88;80.41
85979;BME280;76553;50.982;8.258;2024-03-29T04:58:07;93982.41;;;4.27;80.58
85979;BME280;76553;50.982;8.258;2024-03-29T05:00:32;93983.88;;;4.18;80.45
85979;BME280;76553;50.982;8.258;2024-03-29T05:02:57;94008.50;;;4.43;81.68
85979;BME280;76553;50.982;8.258;2024-03-29T05:05:23;93981.34;;;4.28;81.59
85979;BME280;76553;50.982;8.258;2024-03-29T05:07:48;94009.06;;;4.45;81.12
85979;BME280;76553;50.982;8.258;2024-03-29T05:10:13;93959.56;;;4.22;81.30
85979;BME280;76553;50.982;8.258;2024-03-29T05:12:40;93996.44;;;4.42;82.18
85979;BME280;76553;50.982;8.258;2024-03-29T05:15:06;93963.91;;;4.11;81.74
85979;BME280;76553;50.982;8.258;2024-03-29T05:17:31;93995.56;;;4.32;82.38
85979;BME280;76553;50.982;8.258;2024-03-29T05:19:57;93974.97;;;4.19;81.61
85979;BME280;76553;50.982;8.258;2024-03-29T05:22:22;93987.63;;;4.27;82.33
85979;BME280;76553;50.982;8.258;2024-03-29T05:24:47;94010.09;;;4.44;81.85
85979;BME280;76553;50.982;8.258;2024-03-29T05:27:13;94006.66;;;4.44;82.70
85979;BME280;76553;50.982;8.258;2024-03-29T05:29:38;94008.97;;;4.35;82.36
85979;BME280;76553;50.982;8.258;2024-03-29T05:32:04;94006.16;;;4.42;83.11
85979;BME280;76553;50.982;8.258;2024-03-29T05:34:30;93970.44;;;4.09;82.41
85979;BME280;76553;50.982;8.258;2024-03-29T05:36:55;94020.56;;;4.44;82.91
85979;BME280;76553;50.982;8.258;2024-03-29T05:39:20;93961.84;;;4.13;82.22
85979;BME280;76553;50.982;8.258;2024-03-29T05:41:46;94006.44;;;4.45;83.04
85979;BME280;76553;50.982;8.258;2024-03-29T05:44:11;93971.56;;;4.18;83.41
85979;BME280;76553;50.982;8.258;2024-03-29T05:46:36;93986.94;;;4.36;83.33
85979;BME280;76553;50.982;8.258;2024-03-29T05:49:02;93998.22;;;4.37;83.34
85979;BME280;76553;50.982;8.258;2024-03-29T05:51:28;94005.94;;;4.48;83.28
85979;BME280;76553;50.982;8.258;2024-03-29T05:53:53;93998.28;;;4.42;83.31
85979;BME280;76553;50.982;8.258;2024-03-29T05:56:18;93949.28;;;4.16;84.06
85979;BME280;76553;50.982;8.258;2024-03-29T05:58:43;94005.50;;;4.56;83.95
85979;BME280;76553;50.982;8.258;2024-03-29T06:01:10;93945.38;;;4.18;83.97
85979;BME280;76553;50.982;8.258;2024-03-29T06:03:35;94012.41;;;4.67;84.42
85979;BME280;76553;50.982;8.258;2024-03-29T06:06:00;94017.16;;;4.70;84.02
85979;BME280;76553;50.982;8.258;2024-03-29T06:08:26;93986.03;;;4.52;83.91
85979;BME280;76553;50.982;8.258;2024-03-29T06:10:52;94033.47;;;4.77;84.50
85979;BME280;76553;50.982;8.258;2024-03-29T06:13:18;94014.97;;;4.62;84.97
85979;BME280;76553;50.982;8.258;2024-03-29T06:15:54;94017.69;;;4.72;84.88
85979;BME280;76553;50.982;8.258;2024-03-29T06:18:38;93987.13;;;4.56;84.58
85979;BME280;76553;50.982;8.258;2024-03-29T06:21:03;94027.31;;;4.93;84.75
85979;BME280;76553;50.982;8.258;2024-03-29T06:23:30;94021.56;;;4.96;84.50
85979;BME280;76553;50.982;8.258;2024-03-29T06:25:55;94036.84;;;5.04;85.30
85979;BME280;76553;50.982;8.258;2024-03-29T06:28:21;94026.69;;;5.13;85.11
85979;BME280;76553;50.982;8.258;2024-03-29T06:30:46;94001.72;;;5.05;85.18
85979;BME280;76553;50.982;8.258;2024-03-29T06:33:11;94001.84;;;5.25;85.53
85979;BME280;76553;50.982;8.258;2024-03-29T06:35:37;93998.63;;;5.13;85.55
85979;BME280;76553;50.982;8.258;2024-03-29T06:38:02;94020.28;;;5.35;85.49
85979;BME280;76553;50.982;8.258;2024-03-29T06:40:27;94019.53;;;5.40;85.55
85979;BME280;76553;50.982;8.258;2024-03-29T06:42:53;94030.56;;;5.42;86.12
85979;BME280;76553;50.982;8.258;2024-03-29T06:45:21;94031.34;;;5.42;86.21
85979;BME280;76553;50.982;8.258;2024-03-29T06:47:46;94012.41;;;5.35;86.02
85979;BME280;76553;50.982;8.258;2024-03-29T06:50:12;93972.88;;;5.10;85.90
85979;BME280;76553;50.982;8.258;2024-03-29T06:52:37;94024.31;;;5.48;86.23
85979;BME280;76553;50.982;8.258;2024-03-29T06:55:02;93997.41;;;5.31;86.78
85979;BME280;76553;50.982;8.258;2024-03-29T06:57:28;93997.19;;;5.37;86.87
85979;BME280;76553;50.982;8.258;2024-03-29T06:59:56;94025.16;;;5.59;86.59
85979;BME280;76553;50.982;8.258;2024-03-29T07:02:21;94011.97;;;5.48;86.78
85979;BME280;76553;50.982;8.258;2024-03-29T07:04:46;94014.88;;;5.52;87.39
85979;BME280;76553;50.982;8.258;2024-03-29T07:07:12;94028.59;;;5.64;86.70
85979;BME280;76553;50.982;8.258;2024-03-29T07:09:37;94031.25;;;5.64;87.26
85979;BME280;76553;50.982;8.258;2024-03-29T07:12:03;94024.91;;;5.60;86.98
85979;BME280;76553;50.982;8.258;2024-03-29T07:14:28;94044.13;;;5.71;86.82
85979;BME280;76553;50.982;8.258;2024-03-29T07:16:54;94042.06;;;5.73;86.81
85979;BME280;76553;50.982;8.258;2024-03-29T07:19:20;94041.47;;;5.66;87.23
85979;BME280;76553;50.982;8.258;2024-03-29T07:21:46;94042.78;;;5.68;87.03
85979;BME280;76553;50.982;8.258;2024-03-29T07:24:12;94059.97;;;5.81;87.53
85979;BME280;76553;50.982;8.258;2024-03-29T07:26:38;94055.25;;;5.83;86.88
85979;BME280;76553;50.982;8.258;2024-03-29T07:29:03;93987.50;;;5.38;87.90
85979;BME280;76553;50.982;8.258;2024-03-29T07:31:30;94071.59;;;5.90;87.10
85979;BME280;76553;50.982;8.258;2024-03-29T07:33:55;94056.28;;;5.82;87.54
85979;BME280;76553;50.982;8.258;2024-03-29T07:36:21;94046.81;;;5.81;87.04
85979;BME280;76553;50.982;8.258;2024-03-29T07:38:48;94055.25;;;5.83;87.04
85979;BME280;76553;50.982;8.258;2024-03-29T07:41:13;94060.03;;;5.86;86.82
85979;BME280;76553;50.982;8.258;2024-03-29T07:43:40;94031.53;;;5.68;87.29
85979;BME280;76553;50.982;8.258;2024-03-29T07:46:05;94073.72;;;5.98;87.52
85979;BME280;76553;50.982;8.258;2024-03-29T07:48:33;94029.19;;;5.71;87.44
85979;BME280;76553;50.982;8.258;2024-03-29T07:50:59;94038.66;;;5.77;87.48
85979;BME280;76553;50.982;8.258;2024-03-29T07:53:24;94075.34;;;6.04;87.46
85979;BME280;76553;50.982;8.258;2024-03-29T07:55:50;94049.50;;;5.86;87.53
85979;BME280;76553;50.982;8.258;2024-03-29T07:58:15;94045.31;;;5.90;87.10
85979;BME280;76553;50.982;8.258;2024-03-29T08:00:42;94087.47;;;6.10;87.32
85979;BME280;76553;50.982;8.258;2024-03-29T08:03:07;94085.28;;;5.97;87.80
85979;BME280;76553;50.982;8.258;2024-03-29T08:05:33;94091.84;;;5.94;87.59
85979;BME280;76553;50.982;8.258;2024-03-29T08:07:59;94054.38;;;5.72;87.73
85979;BME280;76553;50.982;8.258;2024-03-29T08:10:24;94067.09;;;5.85;87.85
85979;BME280;76553;50.982;8.258;2024-03-29T08:12:49;94099.03;;;6.09;88.04
85979;BME280;76553;50.982;8.258;2024-03-29T08:15:15;94101.41;;;6.10;87.87
85979;BME280;76553;50.982;8.258;2024-03-29T08:17:40;94028.06;;;5.62;87.85
85979;BME280;76553;50.982;8.258;2024-03-29T08:20:05;94102.44;;;6.09;88.38
85979;BME280;76553;50.982;8.258;2024-03-29T08:22:31;94085.88;;;6.04;88.08
85979;BME280;76553;50.982;8.258;2024-03-29T08:24:58;94060.56;;;5.93;88.67
85979;BME280;76553;50.982;8.258;2024-03-29T08:27:24;94094.34;;;6.21;88.94
85979;BME280;76553;50.982;8.258;2024-03-29T08:29:50;94098.81;;;6.20;88.82
85979;BME280;76553;50.982;8.258;2024-03-29T08:32:15;94113.06;;;6.29;88.48
85979;BME280;76553;50.982;8.258;2024-03-29T08:34:41;94075.91;;;6.11;88.31
85979;BME280;76553;50.982;8.258;2024-03-29T08:37:06;94083.84;;;6.26;89.03
85979;BME280;76553;50.982;8.258;2024-03-29T08:39:32;94089.69;;;6.38;89.05
85979;BME280;76553;50.982;8.258;2024-03-29T08:42:00;94082.59;;;6.43;88.96
85979;BME280;76553;50.982;8.258;2024-03-29T08:44:31;94081.06;;;6.47;88.88
85979;BME280;76553;50.982;8.258;2024-03-29T08:46:56;94080.00;;;6.48;88.82
85979;BME280;76553;50.982;8.258;2024-03-29T08:49:23;94023.63;;;6.14;88.35
85979;BME280;76553;50.982;8.258;2024-03-29T08:51:49;94026.53;;;6.18;88.80
85979;BME280;76553;50.982;8.258;2024-03-29T08:54:14;94087.13;;;6.53;88.91
85979;BME280;76553;50.982;8.258;2024-03-29T08:56:40;94073.97;;;6.58;88.62
85979;BME280;76553;50.982;8.258;2024-03-29T08:59:06;94088.22;;;6.67;88.53
85979;BME280;76553;50.982;8.258;2024-03-29T09:01:36;94094.28;;;6.72;88.41
85979;BME280;76553;50.982;8.258;2024-03-29T09:04:02;94095.31;;;6.66;88.66
85979;BME280;76553;50.982;8.258;2024-03-29T09:06:28;94107.19;;;6.79;88.49
85979;BME280;76553;50.982;8.258;2024-03-29T09:08:54;94085.88;;;6.70;88.71
85979;BME280;76553;50.982;8.258;2024-03-29T09:11:19;94096.13;;;6.77;88.61
85979;BME280;76553;50.982;8.258;2024-03-29T09:13:44;94072.69;;;6.65;88.54
85979;BME280;76553;50.982;8.258;2024-03-29T09:16:09;94119.56;;;6.83;88.21
85979;BME280;76553;50.982;8.258;2024-03-29T09:18:35;94132.75;;;6.89;88.51
85979;BME280;76553;50.982;8.258;2024-03-29T09:21:00;94120.34;;;6.89;88.37
85979;BME280;76553;50.982;8.258;2024-03-29T09:23:27;94125.63;;;6.94;88.33
85979;BME280;76553;50.982;8.258;2024-03-29T09:25:56;94126.72;;;6.98;88.52
85979;BME280;76553;50.982;8.258;2024-03-29T09:28:23;94078.50;;;6.88;88.22
85979;BME280;76553;50.982;8.258;2024-03-29T09:30:48;94050.06;;;6.69;88.57
85979;BME280;76553;50.982;8.258;2024-03-29T09:33:14;94064.31;;;6.83;88.51
85979;BME280;76553;50.982;8.258;2024-03-29T09:35:39;94114.63;;;7.17;88.73
85979;BME280;76553;50.982;8.258;2024-03-29T09:38:04;94107.25;;;7.09;88.54
85979;BME280;76553;50.982;8.258;2024-03-29T09:40:30;94098.28;;;6.95;88.13
85979;BME280;76553;50.982;8.258;2024-03-29T09:43:00;94110.41;;;7.06;88.57
85979;BME280;76553;50.982;8.258;2024-03-29T09:45:30;94128.88;;;7.26;88.12
85979;BME280;76553;50.982;8.258;2024-03-29T09:47:58;94085.66;;;6.92;88.08
85979;BME280;76553;50.982;8.258;2024-03-29T09:50:25;94126.25;;;7.26;88.36
85979;BME280;76553;50.982;8.258;2024-03-29T09:52:51;94120.19;;;7.31;88.52
85979;BME280;76553;50.982;8.258;2024-03-29T09:55:18;94145.75;;;7.45;88.11
85979;BME280;76553;50.982;8.258;2024-03-29T09:57:45;94133.91;;;7.48;88.31
85979;BME280;76553;50.982;8.258;2024-03-29T10:00:10;94103.84;;;7.44;88.11
85979;BME280;76553;50.982;8.258;2024-03-29T10:02:36;94116.78;;;7.55;88.10
85979;BME280;76553;50.982;8.258;2024-03-29T10:05:03;94079.13;;;7.35;87.87
85979;BME280;76553;50.982;8.258;2024-03-29T10:07:32;94099.94;;;7.46;87.54
85979;BME280;76553;50.982;8.258;2024-03-29T10:10:00;94137.84;;;7.70;87.65
85979;BME280;76553;50.982;8.258;2024-03-29T10:12:27;94126.78;;;7.63;87.53
85979;BME280;76553;50.982;8.258;2024-03-29T10:14:56;94133.09;;;7.57;87.37
85979;BME280;76553;50.982;8.258;2024-03-29T10:17:30;94157.09;;;7.71;87.62
85979;BME280;76553;50.982;8.258;2024-03-29T10:20:00;94141.03;;;7.72;87.74
85979;BME280;76553;50.982;8.258;2024-03-29T10:22:25;94132.06;;;7.68;87.20
85979;BME280;76553;50.982;8.258;2024-03-29T10:24:51;94152.06;;;7.84;87.48
85979;BME280;76553;50.982;8.258;2024-03-29T10:27:16;94134.94;;;7.82;86.97
85979;BME280;76553;50.982;8.258;2024-03-29T10:29:41;94094.91;;;7.55;87.13
85979;BME280;76553;50.982;8.258;2024-03-29T10:32:06;94145.22;;;7.83;86.65
85979;BME280;76553;50.982;8.258;2024-03-29T10:34:32;94169.47;;;7.80;86.78
85979;BME280;76553;50.982;8.258;2024-03-29T10:37:02;94152.88;;;7.75;87.03
85979;BME280;76553;50.982;8.258;2024-03-29T10:39:29;94157.34;;;7.89;87.23
85979;BME280;76553;50.982;8.258;2024-03-29T10:41:56;94170.50;;;7.94;87.32
85979;BME280;76553;50.982;8.258;2024-03-29T10:44:22;94129.41;;;7.68;87.16
85979;BME280;76553;50.982;8.258;2024-03-29T10:46:50;94146.53;;;7.81;87.05
85979;BME280;76553;50.982;8.258;2024-03-29T10:49:15;94140.50;;;7.70;86.65
85979;BME280;76553;50.982;8.258;2024-03-29T10:51:42;94180.78;;;7.96;86.89
85979;BME280;76553;50.982;8.258;2024-03-29T10:54:09;94168.94;;;7.88;86.51
85979;BME280;76553;50.982;8.258;2024-03-29T10:56:35;94153.41;;;7.87;86.75
85979;BME280;76553;50.982;8.258;2024-03-29T10:59:19;94160.50;;;7.91;86.59
85979;BME280;76553;50.982;8.258;2024-03-29T11:01:52;94136.03;;;7.71;86.90
85979;BME280;76553;50.982;8.258;2024-03-29T11:04:27;94188.16;;;8.04;86.58
85979;BME280;76553;50.982;8.258;2024-03-29T11:06:57;94192.13;;;8.06;86.25
85979;BME280;76553;50.982;8.258;2024-03-29T11:09:27;94175.25;;;8.07;86.45
85979;BME280;76553;50.982;8.258;2024-03-29T11:11:54;94178.16;;;8.16;86.18
85979;BME280;76553;50.982;8.258;2024-03-29T11:14:37;94148.63;;;7.99;86.06
85979;BME280;76553;50.982;8.258;2024-03-29T11:17:07;94171.53;;;8.13;86.08
85979;BME280;76553;50.982;8.258;2024-03-29T11:19:33;94104.34;;;7.76;85.88
85979;BME280;76553;50.982;8.258;2024-03-29T11:21:58;94171.28;;;8.30;85.70
85979;BME280;76553;50.982;8.258;2024-03-29T11:24:26;94124.63;;;8.05;85.39
85979;BME280;76553;50.982;8.258;2024-03-29T11:27:31;94180.53;;;8.38;85.75
85979;BME280;76553;50.982;8.258;2024-03-29T11:30:31;93950.91;;;6.80;85.09
85979;BME280;76553;50.982;8.258;2024-03-29T11:37:06;94081.69;;;7.85;85.35
85979;BME280;76553;50.982;8.258;2024-03-29T11:40:02;94176.53;;;8.40;85.61
85979;BME280;76553;50.982;8.258;2024-03-29T11:52:54;93998.25;;;7.30;84.46
85979;BME280;76553;50.982;8.258;2024-03-29T11:59:16;94136.72;;;8.27;84.82
85979;BME280;76553;50.982;8.258;2024-03-29T12:01:41;94176.81;;;8.39;84.94
85979;BME280;76553;50.982;8.258;2024-03-29T12:04:07;94138.84;;;8.19;84.87
85979;BME280;76553;50.982;8.258;2024-03-29T12:06:32;94172.59;;;8.43;84.87
85979;BME280;76553;50.982;8.258;2024-03-29T12:08:58;94127.25;;;8.05;85.03
85979;BME280;76553;50.982;8.258;2024-03-29T12:11:25;94186.81;;;8.47;85.17
85979;BME280;76553;50.982;8.258;2024-03-29T12:13:52;94190.25;;;8.42;84.74
85979;BME280;76553;50.982;8.258;2024-03-29T12:16:17;94147.31;;;8.16;84.77
85979;BME280;76553;50.982;8.258;2024-03-29T12:18:46;94151.78;;;8.11;84.72
85979;BME280;76553;50.982;8.258;2024-03-29T12:21:12;94179.44;;;8.39;85.27
85979;BME280;76553;50.982;8.258;2024-03-29T12:23:46;94173.63;;;8.42;85.18
85979;BME280;76553;50.982;8.258;2024-03-29T12:26:12;94148.34;;;8.31;85.63
85979;BME280;76553;50.982;8.258;2024-03-29T12:28:37;94117.75;;;8.14;85.49
85979;BME280;76553;50.982;8.258;2024-03-29T12:31:03;94153.34;;;8.37;85.45
85979;BME280;76553;50.982;8.258;2024-03-29T12:33:29;94131.72;;;8.30;85.59
85979;BME280;76553;50.982;8.258;2024-03-29T12:35:57;94155.41;;;8.55;85.83
85979;BME280;76553;50.982;8.258;2024-03-29T12:38:23;94148.53;;;8.59;85.34
85979;BME280;76553;50.982;8.258;2024-03-29T12:40:49;94150.91;;;8.61;85.61
85979;BME280;76553;50.982;8.258;2024-03-29T12:43:21;94168.81;;;8.69;85.12
85979;BME280;76553;50.982;8.258;2024-03-29T12:45:49;94175.94;;;8.68;85.55
85979;BME280;76553;50.982;8.258;2024-03-29T12:48:15;94196.25;;;8.68;85.42
85979;BME280;76553;50.982;8.258;2024-03-29T12:50:42;94200.25;;;8.60;84.62
85979;BME280;76553;50.982;8.258;2024-03-29T12:53:10;94213.72;;;8.54;85.10
85979;BME280;76553;50.982;8.258;2024-03-29T12:55:36;94214.81;;;8.48;85.09
85979;BME280;76553;50.982;8.258;2024-03-29T12:58:05;94222.19;;;8.46;85.47
85979;BME280;76553;50.982;8.258;2024-03-29T13:00:34;94206.38;;;8.36;85.44
85979;BME280;76553;50.982;8.258;2024-03-29T13:03:00;94234.59;;;8.40;86.01
85979;BME280;76553;50.982;8.258;2024-03-29T13:05:26;94200.53;;;8.18;85.95
85979;BME280;76553;50.982;8.258;2024-03-29T13:07:53;94235.91;;;8.38;86.06
85979;BME280;76553;50.982;8.258;2024-03-29T13:10:18;94245.38;;;8.54;86.45
85979;BME280;76553;50.982;8.258;2024-03-29T13:12:47;94213.22;;;8.37;86.46
85979;BME280;76553;50.982;8.258;2024-03-29T13:15:26;94222.19;;;8.46;86.96
85979;BME280;76553;50.982;8.258;2024-03-29T13:17:53;94242.72;;;8.69;87.40
85979;BME280;76553;50.982;8.258;2024-03-29T13:20:19;94227.94;;;8.63;87.19
85979;BME280;76553;50.982;8.258;2024-03-29T13:22:46;94254.03;;;8.74;86.69
85979;BME280;76553;50.982;8.258;2024-03-29T13:25:14;94260.91;;;8.80;86.24